Time;durP1;ratioP1;P1;durP2;ratioP2;P2;SDS_P1;SDS_P2;PMS_P1;PMS_P2;Temp;Humidity;BMP_temperature;BMP_pressure;BME280_temperature;BME280_humidity;BME280_pressure;Samples;Min_cycle;Max_cycle;Signal;HPM_P1;HPM_P2
2023/08/15 00:00:47;;;;;;;9.28;5.70;;;;;;;23.45;59.51;100827.23;1631580;88;21897;-71
2023/08/15 00:03:53;;;;;;;6.55;5.72;;;;;;;23.33;59.76;100825.02;1624604;86;21349;-76
2023/08/15 00:06:59;;;;;;;9.13;5.95;;;;;;;23.23;60.09;100823.97;1642588;87;21328;-76
2023/08/15 00:10:05;;;;;;;10.50;5.62;;;;;;;23.29;59.94;100825.76;1644439;87;21295;-76
2023/08/15 00:13:11;;;;;;;10.03;6.08;;;;;;;23.22;60.20;100827.31;1614570;89;21312;-72
2023/08/15 00:16:16;;;;;;;10.68;6.03;;;;;;;23.33;60.16;100832.00;1623568;88;21900;-75
2023/08/15 00:19:22;;;;;;;9.20;5.85;;;;;;;23.19;60.56;100824.45;1623442;88;21192;-76
2023/08/15 00:22:27;;;;;;;11.43;5.55;;;;;;;23.26;60.47;100826.27;1640692;87;21343;-71
2023/08/15 00:25:32;;;;;;;20.12;7.00;;;;;;;23.47;60.22;100826.97;1641852;87;21292;-76
2023/08/15 00:28:37;;;;;;;11.00;5.67;;;;;;;23.41;60.23;100819.59;1641805;87;21332;-76
2023/08/15 00:31:43;;;;;;;13.25;7.20;;;;;;;23.41;60.06;100825.19;1639661;87;21321;-76
2023/08/15 00:34:49;;;;;;;13.60;6.00;;;;;;;23.01;61.27;100830.75;1623465;88;21877;-71
2023/08/15 00:37:54;;;;;;;8.45;5.30;;;;;;;22.99;61.33;100828.22;1623507;88;21908;-76
2023/08/15 00:40:59;;;;;;;10.13;5.72;;;;;;;23.09;61.03;100828.98;1642091;87;21338;-74
2023/08/15 00:44:07;;;;;;;9.23;5.75;;;;;;;23.02;60.95;100829.13;1641990;87;21310;-72
2023/08/15 00:47:13;;;;;;;7.47;5.90;;;;;;;22.95;61.08;100826.45;1641860;87;21338;-74
2023/08/15 00:50:19;;;;;;;12.65;6.00;;;;;;;22.92;61.14;100830.31;1641784;87;21860;-74
2023/08/15 00:53:26;;;;;;;10.68;6.10;;;;;;;22.80;61.62;100831.67;1641918;87;21309;-71
2023/08/15 00:56:32;;;;;;;9.43;5.92;;;;;;;22.94;61.21;100829.50;1641770;87;21318;-71
2023/08/15 00:59:37;;;;;;;9.83;6.72;;;;;;;23.40;59.78;100836.05;1641870;87;21294;-74
2023/08/15 01:02:43;;;;;;;10.80;5.75;;;;;;;23.48;59.35;100828.69;1641889;87;21302;-71
2023/08/15 01:05:51;;;;;;;10.20;6.30;;;;;;;23.40;59.39;100826.28;1655080;86;21333;-76
2023/08/15 01:08:58;;;;;;;11.05;6.17;;;;;;;23.08;60.42;100826.74;1655430;86;21319;-71
2023/08/15 01:12:15;;;;;;;7.95;5.78;;;;;;;22.73;61.50;100831.52;1655385;86;21922;-77
2023/08/15 01:15:29;;;;;;;12.43;6.20;;;;;;;22.75;61.85;100827.93;1653955;86;21333;-73
2023/08/15 01:18:42;;;;;;;34.70;6.33;;;;;;;22.68;61.91;100831.70;1653866;86;21734;-78
2023/08/15 01:21:49;;;;;;;10.25;5.90;;;;;;;22.94;61.17;100828.95;1653812;86;21329;-73
2023/08/15 01:24:56;;;;;;;11.60;6.47;;;;;;;23.10;60.35;100837.13;1654363;86;21316;-73
2023/08/15 01:28:03;;;;;;;11.73;6.15;;;;;;;22.84;61.14;100833.44;1653983;86;21294;-75
2023/08/15 01:31:28;;;;;;;14.68;6.67;;;;;;;22.91;61.03;100832.77;1654173;86;21328;-71
2023/08/15 01:34:45;;;;;;;6.20;5.60;;;;;;;22.99;60.74;100838.53;1654191;86;21329;-71
2023/08/15 01:37:55;;;;;;;11.12;5.80;;;;;;;22.97;60.66;100833.21;1670815;86;21373;-76
2023/08/15 01:41:02;;;;;;;8.68;6.12;;;;;;;22.48;62.32;100839.56;1654382;86;21892;-71
2023/08/15 01:44:08;;;;;;;12.73;6.35;;;;;;;22.89;61.16;100837.77;1699739;84;21850;-76
2023/08/15 01:47:13;;;;;;;9.68;5.80;;;;;;;22.74;61.15;100836.84;1691759;84;21341;-75
2023/08/15 01:50:19;;;;;;;12.10;5.92;;;;;;;22.75;61.30;100837.69;1658246;86;21319;-75
2023/08/15 01:53:26;;;;;;;12.25;5.45;;;;;;;22.92;60.67;100842.31;1654988;86;21819;-75
2023/08/15 01:56:32;;;;;;;8.23;5.65;;;;;;;23.23;59.51;100833.73;1655156;86;21322;-71
2023/08/15 01:59:38;;;;;;;12.13;5.60;;;;;;;22.80;61.00;100833.62;1655147;86;21190;-71
2023/08/15 02:02:44;;;;;;;8.70;5.45;;;;;;;22.77;60.90;100834.09;1641950;86;21310;-71
2023/08/15 02:05:50;;;;;;;10.08;6.70;;;;;;;23.01;60.05;100828.84;1669288;86;21296;-76
2023/08/15 02:08:56;;;;;;;6.80;5.40;;;;;;;22.64;61.12;100829.64;1671667;86;21296;-72
2023/08/15 02:12:03;;;;;;;11.22;5.67;;;;;;;22.74;60.96;100831.27;1671592;86;21878;-75
2023/08/15 02:15:09;;;;;;;9.48;5.58;;;;;;;22.85;60.51;100831.78;1671636;86;21289;-74
2023/08/15 02:18:14;;;;;;;10.93;6.20;;;;;;;22.93;60.11;100826.42;1670673;84;21337;-71
2023/08/15 02:21:19;;;;;;;11.03;5.90;;;;;;;23.02;59.76;100836.11;1670230;86;22008;-72
2023/08/15 02:24:24;;;;;;;9.03;5.78;;;;;;;23.04;59.60;100836.69;1669863;86;21296;-76
2023/08/15 02:27:30;;;;;;;10.55;5.33;;;;;;;22.87;60.01;100837.14;1670077;86;21367;-76
2023/08/15 02:30:39;;;;;;;9.03;5.83;;;;;;;23.10;59.39;100844.62;1670005;86;21297;-71
2023/08/15 02:33:45;;;;;;;11.78;5.92;;;;;;;22.74;60.17;100838.23;1671438;84;21322;-71
2023/08/15 02:36:54;;;;;;;10.00;5.55;;;;;;;22.67;60.49;100847.26;1671412;86;21326;-76
2023/08/15 02:39:59;;;;;;;10.63;5.83;;;;;;;22.70;60.40;100843.99;1671668;86;21294;-71
2023/08/15 02:43:05;;;;;;;11.83;5.95;;;;;;;22.61;60.67;100848.24;1671595;86;21290;-76
2023/08/15 02:46:11;;;;;;;13.30;5.97;;;;;;;22.88;59.96;100843.86;1671502;86;21321;-75
2023/08/15 02:49:18;;;;;;;6.55;4.90;;;;;;;22.64;60.49;100844.43;1671629;86;21870;-76
2023/08/15 02:52:22;;;;;;;10.00;5.72;;;;;;;22.51;61.04;100848.84;1671763;86;21336;-71
2023/08/15 02:55:28;;;;;;;9.10;5.60;;;;;;;22.43;61.42;100853.38;1671494;86;21319;-76
2023/08/15 02:58:34;;;;;;;17.87;5.53;;;;;;;22.79;60.67;100861.20;1671458;86;21296;-75
2023/08/15 03:01:38;;;;;;;11.33;5.53;;;;;;;22.78;60.62;100863.16;1671383;84;21918;-75
2023/08/15 03:04:44;;;;;;;13.58;5.10;;;;;;;23.19;59.93;100858.49;1670546;86;21965;-75
2023/08/15 03:07:50;;;;;;;12.58;5.85;;;;;;;23.17;60.14;100865.72;1663636;86;21310;-71
2023/08/15 03:10:56;;;;;;;11.05;5.33;;;;;;;23.49;59.20;100855.50;1666080;86;21326;-71
2023/08/15 03:14:01;;;;;;;8.15;5.22;;;;;;;23.91;57.90;100858.86;1666311;86;21329;-76
2023/08/15 03:17:08;;;;;;;9.18;5.42;;;;;;;23.94;57.58;100867.27;1666277;86;21353;-71
2023/08/15 03:20:14;;;;;;;7.58;5.70;;;;;;;24.19;56.93;100865.50;1652920;86;21381;-76
2023/08/15 03:23:21;;;;;;;12.03;5.95;;;;;;;24.39;56.29;100866.42;1666208;86;21963;-76
2023/08/15 03:26:28;;;;;;;6.92;5.55;;;;;;;24.18;57.13;100869.37;1666058;86;21848;-72
2023/08/15 03:29:34;;;;;;;18.23;6.45;;;;;;;24.56;56.09;100869.19;1666098;86;21326;-71
2023/08/15 03:32:41;;;;;;;7.67;5.67;;;;;;;24.41;56.57;100861.41;1665992;86;21326;-72
2023/08/15 03:35:57;;;;;;;16.52;6.05;;;;;;;24.55;56.54;100869.74;1666184;86;21318;-72
2023/08/15 03:39:03;;;;;;;12.98;6.95;;;;;;;24.58;56.90;100867.84;1666012;86;21286;-77
2023/08/15 03:42:43;;;;;;;12.37;6.58;;;;;;;24.73;56.65;100872.27;1665943;86;21333;-72
2023/08/15 03:45:48;;;;;;;11.48;6.55;;;;;;;24.90;56.45;100870.01;1666202;86;21287;-76
2023/08/15 03:48:56;;;;;;;10.58;6.78;;;;;;;25.08;55.92;100878.66;1665922;86;21358;-71
2023/08/15 03:52:01;;;;;;;12.05;6.90;;;;;;;25.42;55.09;100889.22;1666042;86;21322;-76
2023/08/15 03:55:07;;;;;;;14.30;5.97;;;;;;;25.32;55.55;100888.53;1665209;86;21338;-76
2023/08/15 03:58:12;;;;;;;15.83;6.12;;;;;;;25.37;55.45;100888.59;1666303;86;21295;-77
2023/08/15 04:01:18;;;;;;;13.25;7.08;;;;;;;25.61;55.07;100891.13;1665806;86;21401;-76
2023/08/15 04:04:23;;;;;;;9.08;6.90;;;;;;;25.77;54.73;100889.36;1664949;86;21698;-75
2023/08/15 04:07:30;;;;;;;15.30;6.65;;;;;;;26.02;54.29;100893.86;1665664;86;21373;-73
2023/08/15 04:10:39;;;;;;;13.53;6.92;;;;;;;26.13;53.84;100888.63;1669694;86;21325;-77
2023/08/15 04:13:43;;;;;;;15.90;6.72;;;;;;;26.01;54.31;100892.14;1671410;86;21954;-77
2023/08/15 04:16:49;;;;;;;14.95;7.55;;;;;;;26.59;52.96;100890.47;1670703;86;21356;-76
2023/08/15 04:19:56;;;;;;;11.78;6.58;;;;;;;26.97;52.35;100889.88;1670936;86;21321;-72
2023/08/15 04:23:02;;;;;;;11.15;6.35;;;;;;;26.97;52.16;100891.29;1671266;86;21294;-73
2023/08/15 04:26:08;;;;;;;16.90;7.40;;;;;;;26.54;52.52;100886.22;1670093;86;21401;-77
2023/08/15 04:29:14;;;;;;;12.20;7.05;;;;;;;26.75;52.52;100883.84;1670307;86;21301;-72
2023/08/15 04:32:20;;;;;;;10.93;6.30;;;;;;;26.94;52.33;100887.05;1670164;86;21360;-72
2023/08/15 04:35:26;;;;;;;16.23;7.47;;;;;;;26.80;53.36;100884.99;1670971;86;21349;-72
2023/08/15 04:38:31;;;;;;;12.50;6.83;;;;;;;26.86;53.65;100888.11;1671567;86;21329;-72
2023/08/15 04:41:36;;;;;;;8.95;6.37;;;;;;;26.96;52.87;100890.98;1671118;86;21986;-77
2023/08/15 04:44:43;;;;;;;10.10;6.22;;;;;;;27.30;51.92;100894.31;1670779;86;21245;-72
2023/08/15 04:47:49;;;;;;;12.50;6.47;;;;;;;27.80;50.76;100894.23;1670227;84;21339;-78
2023/08/15 04:50:55;;;;;;;10.90;6.70;;;;;;;27.82;50.72;100888.34;1670156;86;21845;-73
2023/08/15 04:54:00;;;;;;;9.58;6.37;;;;;;;27.59;51.43;100889.65;1670581;86;21319;-76
2023/08/15 04:57:06;;;;;;;8.23;5.72;;;;;;;27.82;51.30;100894.81;1670652;86;21938;-73
2023/08/15 05:00:15;;;;;;;9.25;5.67;;;;;;;28.08;50.29;100894.29;1669542;86;21292;-73
2023/08/15 05:03:22;;;;;;;9.63;5.28;;;;;;;28.32;49.78;100894.59;1669764;86;21301;-73
2023/08/15 05:06:27;;;;;;;10.20;6.28;;;;;;;27.85;50.60;100891.98;1669641;86;21309;-77
2023/08/15 05:09:33;;;;;;;13.62;5.12;;;;;;;28.25;50.21;100892.06;1668624;85;21975;-72
2023/08/15 05:12:38;;;;;;;15.90;5.53;;;;;;;28.45;49.92;100896.88;1668280;86;21312;-77
2023/08/15 05:15:42;;;;;;;14.30;5.90;;;;;;;28.48;50.25;100893.52;1668516;85;21306;-72
2023/08/15 05:18:49;;;;;;;10.43;5.70;;;;;;;28.82;49.40;100896.30;1668671;85;21854;-77
2023/08/15 05:21:56;;;;;;;13.40;5.28;;;;;;;28.82;48.82;100887.86;1668811;86;21909;-77
2023/08/15 05:25:03;;;;;;;12.53;5.75;;;;;;;29.12;48.35;100895.41;1668593;86;21289;-72
2023/08/15 05:28:13;;;;;;;10.28;5.92;;;;;;;29.24;48.11;100894.55;1671150;84;21346;-77
2023/08/15 05:31:19;;;;;;;17.02;5.83;;;;;;;29.17;47.86;100895.39;1683235;84;21324;-73
2023/08/15 05:34:26;;;;;;;7.60;5.15;;;;;;;29.23;48.31;100899.34;1668737;85;21940;-73
2023/08/15 05:37:32;;;;;;;28.57;5.15;;;;;;;28.62;49.65;100892.39;1660377;85;21322;-73
2023/08/15 05:40:39;;;;;;;16.30;6.10;;;;;;;29.23;47.57;100895.68;1669142;84;21304;-77
2023/08/15 05:43:44;;;;;;;7.60;5.17;;;;;;;29.33;48.35;100897.61;1664045;84;21858;-72
2023/08/15 05:46:49;;;;;;;11.35;5.67;;;;;;;29.50;48.09;100893.86;1642333;85;21796;-73
2023/08/15 05:49:49;;;;;;;8.13;5.30;;;;;;;29.54;48.19;100903.42;1668220;85;21837;-73
2023/08/15 05:52:41;;;;;;;10.50;5.15;;;;;;;29.75;47.16;100899.42;1676498;84;21264;-72
2023/08/15 05:55:27;;;;;;;9.38;5.03;;;;;;;29.74;47.31;100901.97;1685043;84;21794;-73
2023/08/15 05:58:19;;;;;;;14.75;5.37;;;;;;;29.73;47.02;100898.85;1678218;84;21648;-76
2023/08/15 06:01:06;;;;;;;14.85;5.62;;;;;;;29.90;46.87;100896.23;1679198;84;21281;-77
2023/08/15 06:03:58;;;;;;;10.70;5.42;;;;;;;30.06;46.49;100900.63;1692125;84;21301;-73
2023/08/15 06:07:03;;;;;;;6.37;4.80;;;;;;;30.19;45.87;100900.58;1672100;85;22245;-77
2023/08/15 06:10:09;;;;;;;8.80;4.90;;;;;;;30.17;45.81;100900.89;1685936;84;21289;-77
2023/08/15 06:13:14;;;;;;;13.45;5.08;;;;;;;30.29;45.86;100901.91;1631574;86;21276;-77
2023/08/15 06:16:20;;;;;;;8.88;4.47;;;;;;;30.32;45.56;100899.09;1624904;86;21949;-72
2023/08/15 06:19:26;;;;;;;7.17;4.45;;;;;;;30.35;44.92;100902.17;1644032;85;21323;-73
2023/08/15 06:22:32;;;;;;;6.60;4.30;;;;;;;30.62;45.20;100904.45;1670218;84;21341;-73
2023/08/15 06:25:38;;;;;;;7.12;4.72;;;;;;;30.77;44.20;100907.73;1655979;84;21309;-77
2023/08/15 06:28:44;;;;;;;12.60;4.05;;;;;;;30.99;43.63;100910.06;1656708;84;22372;-73
2023/08/15 06:31:50;;;;;;;9.68;3.92;;;;;;;30.74;43.99;100911.17;1650464;86;21317;-73
2023/08/15 06:34:55;;;;;;;11.15;3.65;;;;;;;30.95;42.93;100907.56;1665793;84;21321;-73
2023/08/15 06:38:03;;;;;;;5.42;3.22;;;;;;;30.95;42.10;100909.81;1664715;84;21300;-71
2023/08/15 06:41:08;;;;;;;8.38;3.00;;;;;;;31.01;41.40;100909.22;1632902;86;21328;-72
2023/08/15 06:44:15;;;;;;;9.58;3.15;;;;;;;30.97;41.26;100920.84;1647088;86;21335;-70
2023/08/15 06:47:24;;;;;;;8.38;3.27;;;;;;;31.07;41.48;100915.08;1649574;85;21890;-70
2023/08/15 06:50:30;;;;;;;6.70;2.80;;;;;;;31.10;41.36;100916.44;1618010;86;21178;-71
2023/08/15 06:53:36;;;;;;;4.83;3.20;;;;;;;31.29;40.37;100912.60;1646348;85;21339;-71
2023/08/15 06:56:42;;;;;;;9.40;3.70;;;;;;;31.67;39.88;100916.94;1630407;86;21970;-77
2023/08/15 06:59:47;;;;;;;5.92;2.92;;;;;;;31.69;39.20;100918.03;1631515;86;21172;-76
2023/08/15 07:02:53;;;;;;;4.72;2.50;;;;;;;31.79;40.00;100921.56;1634075;86;21319;-76
2023/08/15 07:05:59;;;;;;;11.88;3.52;;;;;;;31.80;39.70;100923.23;1653004;85;22029;-78
2023/08/15 07:09:06;;;;;;;12.93;3.37;;;;;;;31.78;39.18;100922.71;1658002;85;21301;-70
2023/08/15 07:12:12;;;;;;;5.30;3.27;;;;;;;31.80;38.18;100923.81;1646699;85;21323;-78
2023/08/15 07:15:19;;;;;;;4.97;2.85;;;;;;;31.65;38.15;100917.80;1619487;87;21782;-70
2023/08/15 07:18:24;;;;;;;7.53;3.02;;;;;;;31.65;38.03;100923.45;1650292;85;21311;-71
2023/08/15 07:21:30;;;;;;;9.05;3.30;;;;;;;31.78;37.88;100917.05;1648960;86;21299;-78
2023/08/15 07:24:35;;;;;;;14.50;3.10;;;;;;;31.66;38.12;100925.13;1652947;85;21343;-71
2023/08/15 07:27:40;;;;;;;8.95;3.40;;;;;;;31.84;37.53;100918.43;1643552;86;21356;-78
2023/08/15 07:30:48;;;;;;;8.98;3.83;;;;;;;31.84;37.53;100918.43;1646739;85;21295;-77
2023/08/15 07:33:53;;;;;;;7.00;3.83;;;;;;;31.76;37.62;100919.36;1657965;85;21706;-71
2023/08/15 07:36:59;;;;;;;7.42;3.12;;;;;;;31.88;37.49;100914.69;1622563;87;21793;-71
2023/08/15 07:40:15;;;;;;;6.78;3.27;;;;;;;32.14;36.94;100915.75;1623833;87;21319;-77
2023/08/15 07:43:20;;;;;;;5.33;3.25;;;;;;;32.14;36.94;100915.75;1624237;87;21297;-70
2023/08/15 07:46:27;;;;;;;11.85;3.08;;;;;;;32.03;37.46;100923.52;1619670;86;21323;-77
2023/08/15 07:49:33;;;;;;;6.35;2.87;;;;;;;32.16;36.93;100921.35;1636003;87;21671;-70
2023/08/15 07:52:40;;;;;;;5.67;2.90;;;;;;;32.29;36.00;100922.58;1667248;86;21314;-70
2023/08/15 07:55:45;;;;;;;7.30;3.20;;;;;;;31.96;36.35;100921.66;1675158;84;21265;-78
2023/08/15 07:58:51;;;;;;;5.50;2.58;;;;;;;31.94;36.41;100913.45;1616197;88;21253;-70
2023/08/15 08:01:56;;;;;;;7.70;2.62;;;;;;;32.26;36.22;100918.36;1650167;85;21968;-70
2023/08/15 08:05:02;;;;;;;4.03;2.62;;;;;;;32.26;36.64;100924.02;1660866;84;21305;-78
2023/08/15 08:08:08;;;;;;;14.83;2.92;;;;;;;32.28;35.48;100921.73;1666916;86;21918;-71
2023/08/15 08:11:15;;;;;;;6.97;2.35;;;;;;;32.50;35.61;100918.86;1667759;84;21370;-77
2023/08/15 08:14:21;;;;;;;5.50;2.50;;;;;;;32.68;34.80;100909.48;1676051;84;21340;-78
2023/08/15 08:17:27;;;;;;;5.40;2.98;;;;;;;32.68;34.80;100909.48;1681096;84;21813;-74
2023/08/15 08:20:34;;;;;;;9.43;3.55;;;;;;;32.62;35.56;100907.06;1681547;84;21668;-78
2023/08/15 08:23:40;;;;;;;4.22;2.98;;;;;;;32.72;35.43;100896.97;1688048;84;21398;-71
2023/08/15 08:26:46;;;;;;;5.83;3.40;;;;;;;32.72;35.43;100896.97;1684565;84;21315;-76
2023/08/15 08:29:53;;;;;;;15.90;3.90;;;;;;;32.89;35.20;100893.52;1684455;84;21625;-77
2023/08/15 08:40:42;;;;;;;6.15;3.45;;;;;;;33.06;36.49;100882.47;1859383;76;22220;-78
2023/08/15 08:43:49;;;;;;;6.28;3.37;;;;;;;33.06;35.92;100882.47;1823466;77;21818;-78
2023/08/15 08:46:56;;;;;;;5.22;3.15;;;;;;;33.04;36.62;100886.20;1817166;77;21309;-78
2023/08/15 08:50:01;;;;;;;7.03;3.35;;;;;;;33.13;35.08;100887.16;1807750;77;21209;-78
2023/08/15 08:53:08;;;;;;;6.97;3.20;;;;;;;33.26;34.87;100889.71;1811859;77;21295;-78
2023/08/15 08:56:13;;;;;;;5.83;3.05;;;;;;;32.89;35.75;100890.69;1817458;77;21330;-78
2023/08/15 08:59:21;;;;;;;5.55;3.33;;;;;;;32.94;35.77;100882.16;1814907;77;21940;-78
2023/08/15 09:02:29;;;;;;;11.93;3.47;;;;;;;33.00;35.78;100878.06;1801105;77;21275;-79
2023/08/15 09:05:36;;;;;;;5.10;3.12;;;;;;;33.23;35.47;100877.03;1815921;77;22513;-78
2023/08/15 09:08:41;;;;;;;8.58;3.62;;;;;;;33.29;35.80;100879.17;1833869;77;21267;-78
2023/08/15 09:11:47;;;;;;;6.60;3.55;;;;;;;33.38;35.73;100870.77;1817062;77;21267;-77
2023/08/15 09:14:54;;;;;;;7.83;2.72;;;;;;;33.27;36.23;100868.73;1815994;77;21909;-78
2023/08/15 09:18:08;;;;;;;4.65;3.00;;;;;;;33.21;35.18;100869.40;1819708;77;21295;-77
2023/08/15 09:21:14;;;;;;;8.65;3.02;;;;;;;33.17;34.58;100862.70;1814122;79;21873;-78
2023/08/15 09:24:21;;;;;;;7.03;3.02;;;;;;;33.43;35.21;100859.36;1816851;77;22033;-79
2023/08/15 09:27:27;;;;;;;9.10;3.12;;;;;;;33.31;34.31;100862.67;1818994;77;21293;-78
2023/08/15 09:30:32;;;;;;;6.05;3.35;;;;;;;33.31;35.03;100869.21;1758065;80;21307;-78
2023/08/15 09:33:38;;;;;;;6.75;3.12;;;;;;;33.63;33.95;100860.89;1745107;80;21255;-78
2023/08/15 09:36:46;;;;;;;10.65;3.22;;;;;;;33.63;33.95;100860.89;1763070;80;21625;-78
2023/08/15 09:39:54;;;;;;;9.20;2.90;;;;;;;33.69;33.87;100861.90;1748071;80;21316;-78
2023/08/15 09:43:01;;;;;;;7.47;3.52;;;;;;;33.79;34.58;100852.31;1791411;79;22393;-78
2023/08/15 09:46:08;;;;;;;17.92;4.80;;;;;;;33.68;35.08;100856.52;1768857;79;21343;-78
2023/08/15 09:49:15;;;;;;;10.72;4.08;;;;;;;33.90;34.80;100857.16;1799306;79;21653;-78
2023/08/15 09:52:20;;;;;;;45.05;11.03;;;;;;;33.98;33.47;100862.12;1788965;79;22411;-78
2023/08/15 09:55:26;;;;;;;15.72;5.58;;;;;;;33.93;33.65;100856.53;1785118;79;22428;-77
2023/08/15 09:58:32;;;;;;;4.67;2.98;;;;;;;34.04;33.48;100855.15;1787665;79;21315;-77
2023/08/15 10:01:37;;;;;;;6.83;2.72;;;;;;;34.21;32.86;100854.47;1782611;79;21930;-77
2023/08/15 10:04:43;;;;;;;7.62;3.22;;;;;;;34.24;33.84;100856.64;1796873;79;21922;-78
2023/08/15 10:07:49;;;;;;;3.75;2.58;;;;;;;34.24;33.21;100856.05;1782482;79;21863;-78
2023/08/15 10:10:56;;;;;;;6.67;2.72;;;;;;;34.22;32.80;100851.29;1767084;79;21179;-78
2023/08/15 10:14:01;;;;;;;4.12;3.02;;;;;;;33.66;33.51;100841.25;1773579;79;21176;-78
2023/08/15 10:17:06;;;;;;;6.55;2.60;;;;;;;33.71;33.42;100843.14;1771224;79;22006;-78
2023/08/15 10:20:13;;;;;;;7.65;3.22;;;;;;;33.73;33.38;100833.13;1769719;79;21213;-78
2023/08/15 10:23:18;;;;;;;4.42;2.90;;;;;;;33.89;33.18;100834.21;1773762;79;21208;-78
2023/08/15 10:26:24;;;;;;;5.65;2.72;;;;;;;33.96;32.51;100836.04;1780372;79;21315;-78
2023/08/15 10:29:30;;;;;;;7.15;3.35;;;;;;;34.06;32.95;100835.20;1756732;79;21954;-78
2023/08/15 10:32:36;;;;;;;6.05;2.90;;;;;;;34.03;33.17;100829.36;1786606;79;21285;-78
2023/08/15 10:35:42;;;;;;;10.75;2.98;;;;;;;34.08;32.04;100832.90;1771431;79;21644;-78
2023/08/15 10:38:49;;;;;;;3.77;2.55;;;;;;;34.27;31.60;100824.19;1749152;80;21336;-78
2023/08/15 10:41:54;;;;;;;5.83;2.92;;;;;;;34.26;32.61;100821.10;1789529;79;21846;-78
2023/08/15 10:45:08;;;;;;;7.33;2.87;;;;;;;34.37;31.78;100823.67;1796999;79;21349;-78
2023/08/15 10:48:15;;;;;;;5.50;3.08;;;;;;;34.23;32.06;100819.48;1792000;78;21285;-78
2023/08/15 10:51:34;;;;;;;5.15;2.70;;;;;;;34.31;32.13;100818.12;1796657;78;21322;-78
2023/08/15 10:54:40;;;;;;;6.53;2.60;;;;;;;34.14;32.71;100813.73;1809506;78;21275;-78
2023/08/15 10:57:45;;;;;;;5.92;3.00;;;;;;;34.18;31.39;100809.09;1790207;79;21299;-78
2023/08/15 11:00:52;;;;;;;6.58;2.60;;;;;;;34.29;31.19;100801.15;1790969;79;21318;-79
2023/08/15 11:03:58;;;;;;;4.37;2.98;;;;;;;34.52;31.98;100809.09;1803573;78;21287;-78
2023/08/15 11:07:05;;;;;;;8.10;2.80;;;;;;;34.81;31.25;100815.08;1796086;78;21351;-78
2023/08/15 11:10:15;;;;;;;8.83;3.08;;;;;;;34.77;30.88;100807.54;1795323;79;21303;-77
2023/08/15 11:13:21;;;;;;;6.03;2.62;;;;;;;34.86;30.74;100799.06;1783310;78;21256;-77
2023/08/15 11:16:30;;;;;;;3.90;2.40;;;;;;;34.84;31.58;100799.40;1750613;81;21311;-77
2023/08/15 11:19:36;;;;;;;7.67;2.67;;;;;;;34.83;30.81;100801.41;1754398;80;22585;-77
2023/08/15 11:22:42;;;;;;;6.45;2.65;;;;;;;34.70;31.26;100803.76;1756193;80;21335;-77
2023/08/15 11:25:47;;;;;;;6.05;2.70;;;;;;;34.55;32.56;100807.03;1723366;82;21865;-77
2023/08/15 11:28:53;;;;;;;8.15;3.22;;;;;;;34.57;31.86;100800.43;1720870;81;21315;-78
2023/08/15 11:32:00;;;;;;;10.78;2.37;;;;;;;34.63;31.01;100799.15;1728377;82;21338;-78
2023/08/15 11:35:07;;;;;;;5.78;2.33;;;;;;;34.59;30.71;100792.44;1741156;81;21324;-78
2023/08/15 11:38:19;;;;;;;4.85;2.42;;;;;;;34.54;31.23;100785.48;1727988;82;21334;-78
2023/08/15 11:41:25;;;;;;;5.05;2.25;;;;;;;34.58;31.44;100783.64;1730493;81;22326;-78
2023/08/15 11:44:32;;;;;;;6.55;2.80;;;;;;;34.23;32.93;100777.73;1742961;81;22513;-78
2023/08/15 11:47:38;;;;;;;4.72;2.25;;;;;;;34.48;31.66;100770.55;1726249;82;21335;-78
2023/08/15 11:50:46;;;;;;;4.17;2.45;;;;;;;34.67;31.28;100765.22;1726565;81;21304;-77
2023/08/15 11:54:01;;;;;;;5.58;2.40;;;;;;;34.64;31.36;100759.63;1728090;82;21826;-79
2023/08/15 11:57:07;;;;;;;6.08;2.72;;;;;;;34.55;31.09;100767.27;1745990;81;22013;-77
2023/08/15 12:00:14;;;;;;;5.53;2.72;;;;;;;34.63;30.93;100756.54;1735106;80;22491;-77
2023/08/15 12:03:23;;;;;;;5.47;3.02;;;;;;;34.52;32.01;100763.65;1716945;82;22808;-77
2023/08/15 12:06:29;;;;;;;3.70;2.65;;;;;;;34.63;31.21;100757.96;1744929;82;21312;-77
2023/08/15 12:09:34;;;;;;;5.80;2.85;;;;;;;34.70;31.76;100748.37;1705567;81;21330;-77
2023/08/15 12:12:54;;;;;;;7.50;2.60;;;;;;;34.80;31.12;100750.91;1723009;81;21794;-77
2023/08/15 12:15:59;;;;;;;4.00;2.90;;;;;;;34.97;30.83;100749.34;1726352;81;21219;-78
2023/08/15 12:19:05;;;;;;;3.85;2.50;;;;;;;34.77;31.07;100744.48;1736307;81;21652;-77
2023/08/15 12:22:12;;;;;;;10.68;2.90;;;;;;;34.65;31.45;100741.41;1721192;82;21334;-78
2023/08/15 12:25:18;;;;;;;5.12;2.52;;;;;;;34.58;31.39;100736.77;1733422;81;21324;-78
2023/08/15 12:28:25;;;;;;;5.60;2.42;;;;;;;34.81;31.83;100734.11;1734670;80;21251;-77
2023/08/15 12:31:31;;;;;;;5.85;2.58;;;;;;;34.87;31.79;100735.41;1737301;81;21315;-77
2023/08/15 12:34:36;;;;;;;4.17;2.90;;;;;;;34.94;31.68;100735.75;1735235;82;21351;-77
2023/08/15 12:37:42;;;;;;;4.22;2.65;;;;;;;34.86;31.57;100730.86;1729214;81;22604;-77
2023/08/15 12:40:49;;;;;;;5.08;2.70;;;;;;;34.83;31.25;100732.37;1719970;82;21322;-77
2023/08/15 12:43:54;;;;;;;7.45;2.45;;;;;;;35.00;31.77;100735.28;1722126;82;21215;-77
2023/08/15 12:46:59;;;;;;;7.20;2.70;;;;;;;34.79;31.54;100729.34;1721649;82;21312;-78
2023/08/15 12:50:05;;;;;;;10.23;2.87;;;;;;;34.71;31.80;100728.73;1720332;83;21861;-77
2023/08/15 12:53:12;;;;;;;7.50;2.75;;;;;;;34.56;32.02;100726.34;1714424;83;21339;-78
2023/08/15 12:56:18;;;;;;;7.85;2.62;;;;;;;34.82;32.63;100727.88;1705880;83;21327;-77
2023/08/15 12:59:24;;;;;;;10.15;3.05;;;;;;;34.95;31.88;100716.94;1699710;83;21387;-77
2023/08/15 13:02:30;;;;;;;7.03;2.65;;;;;;;34.91;32.30;100717.34;1706731;82;21213;-77
2023/08/15 13:05:37;;;;;;;8.78;3.05;;;;;;;34.61;32.36;100719.09;1719171;82;21284;-78
2023/08/15 13:08:42;;;;;;;6.87;2.60;;;;;;;34.62;31.73;100716.50;1729807;82;21212;-77
2023/08/15 13:11:48;;;;;;;12.20;2.52;;;;;;;34.44;32.59;100709.90;1729559;82;21331;-78
2023/08/15 13:14:52;;;;;;;4.45;2.60;;;;;;;34.62;32.57;100711.41;1731152;82;21713;-77
2023/08/15 13:17:58;;;;;;;6.15;2.87;;;;;;;34.67;32.34;100722.61;1712251;82;21339;-77
2023/08/15 13:21:04;;;;;;;8.73;2.90;;;;;;;34.71;32.13;100712.27;1700313;84;21832;-78
2023/08/15 13:24:10;;;;;;;4.22;2.72;;;;;;;34.63;31.57;100713.07;1699485;84;21256;-77
2023/08/15 13:27:16;;;;;;;5.00;2.70;;;;;;;34.55;31.69;100712.72;1702012;82;21379;-77
2023/08/15 13:30:22;;;;;;;10.40;2.80;;;;;;;34.55;32.11;100716.98;1728931;82;21336;-77
2023/08/15 13:33:30;;;;;;;3.75;2.42;;;;;;;34.23;33.14;100716.70;1729895;82;21383;-77
2023/08/15 13:36:36;;;;;;;6.95;2.77;;;;;;;34.55;32.47;100710.47;1729515;82;21904;-77
2023/08/15 13:39:43;;;;;;;5.90;2.62;;;;;;;34.59;32.23;100708.66;1729718;82;22742;-77
2023/08/15 13:42:49;;;;;;;4.45;2.60;;;;;;;34.71;31.72;100707.42;1731118;82;21319;-77
2023/08/15 13:45:53;;;;;;;4.20;2.65;;;;;;;34.66;33.02;100700.48;1729418;82;21352;-77
2023/08/15 13:49:01;;;;;;;7.22;2.33;;;;;;;34.53;32.32;100706.52;1731496;82;21881;-77
2023/08/15 13:52:07;;;;;;;7.60;2.50;;;;;;;34.59;32.22;100708.66;1731395;82;21323;-77
2023/08/15 13:55:15;;;;;;;7.35;2.40;;;;;;;34.38;32.86;100701.25;1731871;82;21879;-77
2023/08/15 13:58:20;;;;;;;6.05;2.77;;;;;;;34.45;32.50;100700.21;1731767;82;21947;-77
2023/08/15 14:01:26;;;;;;;9.00;2.60;;;;;;;34.16;32.65;100698.45;1731871;82;21346;-77
2023/08/15 14:04:32;;;;;;;6.25;2.47;;;;;;;34.27;32.91;100692.19;1730695;82;22539;-77
2023/08/15 14:07:37;;;;;;;4.67;2.40;;;;;;;34.06;32.70;100689.63;1730278;82;21347;-77
2023/08/15 14:10:43;;;;;;;7.92;2.30;;;;;;;34.04;33.77;100709.83;1731059;82;21901;-77
2023/08/15 14:13:50;;;;;;;7.15;2.95;;;;;;;34.19;33.33;100695.81;1732215;82;21327;-77
2023/08/15 14:16:58;;;;;;;7.50;2.70;;;;;;;34.28;33.28;100698.70;1732903;82;21360;-77
2023/08/15 14:20:05;;;;;;;7.22;2.60;;;;;;;34.32;32.96;100694.87;1732801;82;21319;-77
2023/08/15 14:23:11;;;;;;;4.62;2.50;;;;;;;34.34;33.05;100689.70;1733253;82;21304;-77
2023/08/15 14:26:18;;;;;;;4.58;2.10;;;;;;;34.19;33.35;100695.81;1731554;82;21882;-76
2023/08/15 14:29:23;;;;;;;34.20;3.20;;;;;;;34.25;33.17;100690.27;1731590;82;22046;-77